sensor_id;sensor_type;location;lat;lon;timestamp;temperature;humidity
22623;DHT22;11478;51.094;7.030;2024-03-23T00:55:27;7.70;99.90
22623;DHT22;11478;51.094;7.030;2024-03-23T00:57:53;7.70;99.90
22623;DHT22;11478;51.094;7.030;2024-03-23T01:00:22;7.70;99.90
22623;DHT22;11478;51.094;7.030;2024-03-23T01:02:48;7.60;99.90
22623;DHT22;11478;51.094;7.030;2024-03-23T01:05:19;7.60;99.90
22623;DHT22;11478;51.094;7.030;2024-03-23T01:07:45;7.50;99.90
22623;DHT22;11478;51.094;7.030;2024-03-23T01:10:12;7.50;99.90
22623;DHT22;11478;51.094;7.030;2024-03-23T01:12:38;7.40;99.90
22623;DHT22;11478;51.094;7.030;2024-03-23T01:15:20;7.40;99.90
22623;DHT22;11478;51.094;7.030;2024-03-23T01:17:46;7.30;99.90
22623;DHT22;11478;51.094;7.030;2024-03-23T01:20:25;7.30;99.90
22623;DHT22;11478;51.094;7.030;2024-03-23T01:22:53;7.30;99.90
22623;DHT22;11478;51.094;7.030;2024-03-23T01:28:12;7.30;99.90
22623;DHT22;11478;51.094;7.030;2024-03-23T01:30:39;7.20;99.90
22623;DHT22;11478;51.094;7.030;2024-03-23T01:33:05;7.20;99.90
22623;DHT22;11478;51.094;7.030;2024-03-23T01:35:39;7.20;99.90
22623;DHT22;11478;51.094;7.030;2024-03-23T01:38:05;7.20;99.90
22623;DHT22;11478;51.094;7.030;2024-03-23T01:40:37;7.10;99.90
22623;DHT22;11478;51.094;7.030;2024-03-23T01:43:05;7.10;99.90
22623;DHT22;11478;51.094;7.030;2024-03-23T01:45:39;7.00;99.90
22623;DHT22;11478;51.094;7.030;2024-03-23T01:48:06;7.00;99.90
22623;DHT22;11478;51.094;7.030;2024-03-23T01:50:35;7.00;99.90
22623;DHT22;11478;51.094;7.030;2024-03-23T01:53:06;6.90;99.90
22623;DHT22;11478;51.094;7.030;2024-03-23T01:55:33;6.90;99.90
22623;DHT22;11478;51.094;7.030;2024-03-23T01:58:02;6.80;99.90
22623;DHT22;11478;51.094;7.030;2024-03-23T02:00:28;6.80;99.90
22623;DHT22;11478;51.094;7.030;2024-03-23T02:02:58;6.80;99.90
22623;DHT22;11478;51.094;7.030;2024-03-23T02:05:24;6.80;99.90
22623;DHT22;11478;51.094;7.030;2024-03-23T02:07:56;6.80;99.90
22623;DHT22;11478;51.094;7.030;2024-03-23T02:10:22;6.80;99.90
22623;DHT22;11478;51.094;7.030;2024-03-23T02:13:17;6.70;99.90
22623;DHT22;11478;51.094;7.030;2024-03-23T02:15:43;6.70;99.90
22623;DHT22;11478;51.094;7.030;2024-03-23T02:18:27;6.70;99.90
22623;DHT22;11478;51.094;7.030;2024-03-23T02:20:53;6.60;99.90
22623;DHT22;11478;51.094;7.030;2024-03-23T02:23:20;6.60;99.90
22623;DHT22;11478;51.094;7.030;2024-03-23T02:25:46;6.60;99.90
22623;DHT22;11478;51.094;7.030;2024-03-23T02:28:21;6.60;99.90
22623;DHT22;11478;51.094;7.030;2024-03-23T02:30:51;6.60;99.90
22623;DHT22;11478;51.094;7.030;2024-03-23T02:33:19;6.60;99.90
22623;DHT22;11478;51.094;7.030;2024-03-23T02:35:46;6.50;99.90
22623;DHT22;11478;51.094;7.030;2024-03-23T02:38:25;6.50;99.90
22623;DHT22;11478;51.094;7.030;2024-03-23T02:40:50;6.40;99.90
22623;DHT22;11478;51.094;7.030;2024-03-23T02:43:43;6.30;99.90
22623;DHT22;11478;51.094;7.030;2024-03-23T02:46:08;6.20;99.90
22623;DHT22;11478;51.094;7.030;2024-03-23T02:48:53;6.20;99.90
22623;DHT22;11478;51.094;7.030;2024-03-23T02:51:30;6.20;99.90
22623;DHT22;11478;51.094;7.030;2024-03-23T02:53:56;6.20;99.90
22623;DHT22;11478;51.094;7.030;2024-03-23T02:56:27;6.10;99.90
22623;DHT22;11478;51.094;7.030;2024-03-23T02:58:53;6.10;99.90
22623;DHT22;11478;51.094;7.030;2024-03-23T03:01:19;6.10;99.90
22623;DHT22;11478;51.094;7.030;2024-03-23T03:03:45;6.10;99.90
22623;DHT22;11478;51.094;7.030;2024-03-23T03:06:11;6.10;99.90
22623;DHT22;11478;51.094;7.030;2024-03-23T03:08:37;6.00;99.90
22623;DHT22;11478;51.094;7.030;2024-03-23T03:11:03;6.10;99.90
22623;DHT22;11478;51.094;7.030;2024-03-23T03:13:29;6.00;99.90
22623;DHT22;11478;51.094;7.030;2024-03-23T03:15:55;6.00;99.90
22623;DHT22;11478;51.094;7.030;2024-03-23T03:18:21;6.00;99.90
22623;DHT22;11478;51.094;7.030;2024-03-23T03:20:48;5.90;99.90
22623;DHT22;11478;51.094;7.030;2024-03-23T03:23:14;5.90;99.90
22623;DHT22;11478;51.094;7.030;2024-03-23T03:25:48;5.90;99.90
22623;DHT22;11478;51.094;7.030;2024-03-23T03:28:14;5.90;99.90
22623;DHT22;11478;51.094;7.030;2024-03-23T03:30:42;5.90;99.90
22623;DHT22;11478;51.094;7.030;2024-03-23T03:33:07;5.80;99.90
22623;DHT22;11478;51.094;7.030;2024-03-23T03:35:36;5.80;99.90
22623;DHT22;11478;51.094;7.030;2024-03-23T03:38:04;5.80;99.90
22623;DHT22;11478;51.094;7.030;2024-03-23T03:40:33;5.80;99.90
22623;DHT22;11478;51.094;7.030;2024-03-23T03:43:01;5.80;99.90
22623;DHT22;11478;51.094;7.030;2024-03-23T03:45:42;5.80;99.90
22623;DHT22;11478;51.094;7.030;2024-03-23T03:48:08;5.80;99.90
22623;DHT22;11478;51.094;7.030;2024-03-23T03:50:36;5.80;99.90
22623;DHT22;11478;51.094;7.030;2024-03-23T03:53:09;5.80;99.90
22623;DHT22;11478;51.094;7.030;2024-03-23T03:55:35;5.70;99.90
22623;DHT22;11478;51.094;7.030;2024-03-23T03:58:01;5.70;99.90
22623;DHT22;11478;51.094;7.030;2024-03-23T04:00:27;5.70;99.90
22623;DHT22;11478;51.094;7.030;2024-03-23T04:02:58;5.80;99.90
22623;DHT22;11478;51.094;7.030;2024-03-23T04:05:24;5.80;99.90
22623;DHT22;11478;51.094;7.030;2024-03-23T04:07:52;5.80;99.90
22623;DHT22;11478;51.094;7.030;2024-03-23T04:10:18;5.80;99.90
22623;DHT22;11478;51.094;7.030;2024-03-23T04:15:54;5.80;99.90
22623;DHT22;11478;51.094;7.030;2024-03-23T04:18:21;5.80;99.90
22623;DHT22;11478;51.094;7.030;2024-03-23T04:20:48;5.80;99.90
22623;DHT22;11478;51.094;7.030;2024-03-23T04:23:30;5.70;99.90
22623;DHT22;11478;51.094;7.030;2024-03-23T04:26:03;5.70;99.90
22623;DHT22;11478;51.094;7.030;2024-03-23T04:28:30;5.70;99.90
22623;DHT22;11478;51.094;7.030;2024-03-23T04:30:59;5.70;99.90
22623;DHT22;11478;51.094;7.030;2024-03-23T04:33:32;5.70;99.90
22623;DHT22;11478;51.094;7.030;2024-03-23T04:35:58;5.70;99.90
22623;DHT22;11478;51.094;7.030;2024-03-23T04:38:34;5.70;99.90
22623;DHT22;11478;51.094;7.030;2024-03-23T04:41:00;5.70;99.90
22623;DHT22;11478;51.094;7.030;2024-03-23T04:43:27;5.70;99.90
22623;DHT22;11478;51.094;7.030;2024-03-23T04:45:54;5.70;99.90
22623;DHT22;11478;51.094;7.030;2024-03-23T04:52:00;5.70;99.90
22623;DHT22;11478;51.094;7.030;2024-03-23T04:54:26;5.70;99.90
22623;DHT22;11478;51.094;7.030;2024-03-23T04:56:53;5.70;99.90
22623;DHT22;11478;51.094;7.030;2024-03-23T04:59:19;5.70;99.90
22623;DHT22;11478;51.094;7.030;2024-03-23T05:05:24;5.70;99.90
22623;DHT22;11478;51.094;7.030;2024-03-23T05:07:52;5.80;99.90
22623;DHT22;11478;51.094;7.030;2024-03-23T05:10:25;5.80;99.90
22623;DHT22;11478;51.094;7.030;2024-03-23T05:15:53;5.80;99.90
22623;DHT22;11478;51.094;7.030;2024-03-23T05:18:27;5.80;99.90
22623;DHT22;11478;51.094;7.030;2024-03-23T05:20:57;5.80;99.90
22623;DHT22;11478;51.094;7.030;2024-03-23T05:23:28;5.80;99.90
22623;DHT22;11478;51.094;7.030;2024-03-23T05:25:56;5.70;99.90
22623;DHT22;11478;51.094;7.030;2024-03-23T05:28:47;5.80;99.90
22623;DHT22;11478;51.094;7.030;2024-03-23T05:31:28;5.80;99.90
22623;DHT22;11478;51.094;7.030;2024-03-23T05:34:07;5.80;99.90
22623;DHT22;11478;51.094;7.030;2024-03-23T05:36:42;5.80;99.90
22623;DHT22;11478;51.094;7.030;2024-03-23T05:39:48;5.80;99.90
22623;DHT22;11478;51.094;7.030;2024-03-23T05:51:29;5.80;99.90
22623;DHT22;11478;51.094;7.030;2024-03-23T05:54:18;5.80;99.90
22623;DHT22;11478;51.094;7.030;2024-03-23T05:56:46;5.80;99.90
22623;DHT22;11478;51.094;7.030;2024-03-23T05:59:22;5.80;99.90
22623;DHT22;11478;51.094;7.030;2024-03-23T06:02:36;5.70;99.90
22623;DHT22;11478;51.094;7.030;2024-03-23T06:05:12;5.70;99.90
22623;DHT22;11478;51.094;7.030;2024-03-23T06:07:40;5.70;99.90
22623;DHT22;11478;51.094;7.030;2024-03-23T06:10:09;5.70;99.90
22623;DHT22;11478;51.094;7.030;2024-03-23T06:12:38;5.70;99.90
22623;DHT22;11478;51.094;7.030;2024-03-23T06:15:14;5.70;99.90
22623;DHT22;11478;51.094;7.030;2024-03-23T06:17:43;5.80;99.90
22623;DHT22;11478;51.094;7.030;2024-03-23T06:20:12;5.80;99.90
22623;DHT22;11478;51.094;7.030;2024-03-23T06:23:01;5.80;99.90
22623;DHT22;11478;51.094;7.030;2024-03-23T06:25:44;5.80;99.90
22623;DHT22;11478;51.094;7.030;2024-03-23T06:28:14;5.80;99.90
22623;DHT22;11478;51.094;7.030;2024-03-23T06:30:43;5.80;99.90
22623;DHT22;11478;51.094;7.030;2024-03-23T06:33:16;5.80;99.90
22623;DHT22;11478;51.094;7.030;2024-03-23T06:35:43;5.80;99.90
22623;DHT22;11478;51.094;7.030;2024-03-23T06:38:15;5.80;99.90
22623;DHT22;11478;51.094;7.030;2024-03-23T06:40:42;5.80;99.90
22623;DHT22;11478;51.094;7.030;2024-03-23T06:43:21;5.80;99.90
22623;DHT22;11478;51.094;7.030;2024-03-23T06:45:55;5.90;99.90
22623;DHT22;11478;51.094;7.030;2024-03-23T06:48:23;5.90;99.90
22623;DHT22;11478;51.094;7.030;2024-03-23T06:50:56;5.90;99.90
22623;DHT22;11478;51.094;7.030;2024-03-23T06:53:24;5.80;99.90
22623;DHT22;11478;51.094;7.030;2024-03-23T06:55:54;5.90;99.90
22623;DHT22;11478;51.094;7.030;2024-03-23T06:58:27;6.00;99.90
22623;DHT22;11478;51.094;7.030;2024-03-23T07:03:55;6.10;99.90
22623;DHT22;11478;51.094;7.030;2024-03-23T07:06:47;6.10;99.90
22623;DHT22;11478;51.094;7.030;2024-03-23T07:09:17;6.10;99.90
22623;DHT22;11478;51.094;7.030;2024-03-23T07:12:02;6.60;99.90
22623;DHT22;11478;51.094;7.030;2024-03-23T07:14:49;7.00;99.90
22623;DHT22;11478;51.094;7.030;2024-03-23T07:17:15;7.30;99.90
22623;DHT22;11478;51.094;7.030;2024-03-23T07:19:44;7.20;99.90
22623;DHT22;11478;51.094;7.030;2024-03-23T07:22:10;7.30;99.90
22623;DHT22;11478;51.094;7.030;2024-03-23T07:28:15;7.70;99.90
22623;DHT22;11478;51.094;7.030;2024-03-23T07:31:13;7.60;99.90
22623;DHT22;11478;51.094;7.030;2024-03-23T07:34:20;7.60;99.90
22623;DHT22;11478;51.094;7.030;2024-03-23T07:36:58;7.40;99.90
22623;DHT22;11478;51.094;7.030;2024-03-23T07:39:24;7.40;99.90
22623;DHT22;11478;51.094;7.030;2024-03-23T07:41:59;7.30;99.90
22623;DHT22;11478;51.094;7.030;2024-03-23T07:44:28;7.40;99.90
22623;DHT22;11478;51.094;7.030;2024-03-23T07:46:54;7.40;99.90
22623;DHT22;11478;51.094;7.030;2024-03-23T07:49:25;7.70;99.90
22623;DHT22;11478;51.094;7.030;2024-03-23T07:51:53;8.10;99.90
22623;DHT22;11478;51.094;7.030;2024-03-23T07:54:23;8.10;99.90
22623;DHT22;11478;51.094;7.030;2024-03-23T07:57:04;8.60;99.90
22623;DHT22;11478;51.094;7.030;2024-03-23T07:59:32;9.40;99.90
22623;DHT22;11478;51.094;7.030;2024-03-23T08:02:19;9.50;99.90
22623;DHT22;11478;51.094;7.030;2024-03-23T08:04:48;9.60;99.90
22623;DHT22;11478;51.094;7.030;2024-03-23T08:07:18;9.60;99.90
22623;DHT22;11478;51.094;7.030;2024-03-23T08:09:46;9.60;99.90
22623;DHT22;11478;51.094;7.030;2024-03-23T08:12:16;9.40;99.90
22623;DHT22;11478;51.094;7.030;2024-03-23T08:14:48;9.40;99.90
22623;DHT22;11478;51.094;7.030;2024-03-23T08:17:14;9.90;99.90
22623;DHT22;11478;51.094;7.030;2024-03-23T08:20:00;10.30;99.90
22623;DHT22;11478;51.094;7.030;2024-03-23T08:22:36;10.40;99.90
22623;DHT22;11478;51.094;7.030;2024-03-23T08:25:07;11.10;99.90
22623;DHT22;11478;51.094;7.030;2024-03-23T08:27:33;12.50;99.90
22623;DHT22;11478;51.094;7.030;2024-03-23T08:30:06;13.70;99.90
22623;DHT22;11478;51.094;7.030;2024-03-23T08:32:32;14.40;99.90
22623;DHT22;11478;51.094;7.030;2024-03-23T08:35:00;14.40;99.90
22623;DHT22;11478;51.094;7.030;2024-03-23T08:37:26;13.60;99.90
22623;DHT22;11478;51.094;7.030;2024-03-23T08:39:52;12.60;99.90
22623;DHT22;11478;51.094;7.030;2024-03-23T08:42:18;11.60;99.90
22623;DHT22;11478;51.094;7.030;2024-03-23T08:44:47;11.00;99.90
22623;DHT22;11478;51.094;7.030;2024-03-23T08:47:25;10.60;99.90
22623;DHT22;11478;51.094;7.030;2024-03-23T08:49:55;10.20;99.90
22623;DHT22;11478;51.094;7.030;2024-03-23T08:52:24;9.70;99.90
22623;DHT22;11478;51.094;7.030;2024-03-23T08:54:55;9.10;99.90
22623;DHT22;11478;51.094;7.030;2024-03-23T08:57:24;8.80;99.90
22623;DHT22;11478;51.094;7.030;2024-03-23T08:59:58;8.50;99.90
22623;DHT22;11478;51.094;7.030;2024-03-23T09:02:25;8.50;99.90
22623;DHT22;11478;51.094;7.030;2024-03-23T09:04:57;8.80;99.90
22623;DHT22;11478;51.094;7.030;2024-03-23T09:07:32;9.10;99.90
22623;DHT22;11478;51.094;7.030;2024-03-23T09:10:06;9.30;99.90
22623;DHT22;11478;51.094;7.030;2024-03-23T09:12:32;9.40;99.90
22623;DHT22;11478;51.094;7.030;2024-03-23T09:15:00;9.30;99.90
22623;DHT22;11478;51.094;7.030;2024-03-23T09:17:27;9.30;99.90
22623;DHT22;11478;51.094;7.030;2024-03-23T09:20:02;9.10;99.90
22623;DHT22;11478;51.094;7.030;2024-03-23T09:22:30;9.00;99.90
22623;DHT22;11478;51.094;7.030;2024-03-23T09:24:59;9.00;99.90
22623;DHT22;11478;51.094;7.030;2024-03-23T09:27:25;9.10;99.90
22623;DHT22;11478;51.094;7.030;2024-03-23T09:29:53;9.00;99.90
22623;DHT22;11478;51.094;7.030;2024-03-23T09:32:30;8.90;99.90
22623;DHT22;11478;51.094;7.030;2024-03-23T09:34:58;8.70;99.90
22623;DHT22;11478;51.094;7.030;2024-03-23T09:37:25;8.90;99.90
22623;DHT22;11478;51.094;7.030;2024-03-23T09:39:54;9.40;99.90
22623;DHT22;11478;51.094;7.030;2024-03-23T09:42:26;9.50;99.90
22623;DHT22;11478;51.094;7.030;2024-03-23T09:44:53;9.20;99.90
22623;DHT22;11478;51.094;7.030;2024-03-23T09:47:27;8.90;99.90
22623;DHT22;11478;51.094;7.030;2024-03-23T09:49:57;8.70;99.90
22623;DHT22;11478;51.094;7.030;2024-03-23T09:52:36;8.60;99.90
22623;DHT22;11478;51.094;7.030;2024-03-23T09:55:12;8.70;99.90
22623;DHT22;11478;51.094;7.030;2024-03-23T09:57:44;8.80;99.90
22623;DHT22;11478;51.094;7.030;2024-03-23T10:00:13;8.80;99.90
22623;DHT22;11478;51.094;7.030;2024-03-23T10:02:42;8.70;99.90
22623;DHT22;11478;51.094;7.030;2024-03-23T10:05:30;8.80;99.90
22623;DHT22;11478;51.094;7.030;2024-03-23T10:08:24;9.50;99.90
22623;DHT22;11478;51.094;7.030;2024-03-23T10:10:52;10.20;99.90
22623;DHT22;11478;51.094;7.030;2024-03-23T10:13:28;10.30;99.90
22623;DHT22;11478;51.094;7.030;2024-03-23T10:15:58;10.40;99.90
22623;DHT22;11478;51.094;7.030;2024-03-23T10:18:28;10.30;99.90
22623;DHT22;11478;51.094;7.030;2024-03-23T10:21:10;10.50;99.90
22623;DHT22;11478;51.094;7.030;2024-03-23T10:23:48;10.60;99.90
22623;DHT22;11478;51.094;7.030;2024-03-23T10:26:20;10.30;99.90
22623;DHT22;11478;51.094;7.030;2024-03-23T10:29:00;10.00;99.90
22623;DHT22;11478;51.094;7.030;2024-03-23T10:31:28;9.80;99.90
22623;DHT22;11478;51.094;7.030;2024-03-23T10:33:57;10.00;99.90
22623;DHT22;11478;51.094;7.030;2024-03-23T10:36:29;10.10;99.90
22623;DHT22;11478;51.094;7.030;2024-03-23T10:39:10;10.20;99.90
22623;DHT22;11478;51.094;7.030;2024-03-23T10:41:36;9.80;99.90
22623;DHT22;11478;51.094;7.030;2024-03-23T10:44:09;9.60;99.90
22623;DHT22;11478;51.094;7.030;2024-03-23T10:46:38;9.50;99.90
22623;DHT22;11478;51.094;7.030;2024-03-23T10:49:07;9.30;99.90
22623;DHT22;11478;51.094;7.030;2024-03-23T10:51:37;9.10;99.90
22623;DHT22;11478;51.094;7.030;2024-03-23T10:54:06;9.00;99.90
22623;DHT22;11478;51.094;7.030;2024-03-23T10:56:35;9.00;99.90
22623;DHT22;11478;51.094;7.030;2024-03-23T10:59:12;8.90;99.90
22623;DHT22;11478;51.094;7.030;2024-03-23T11:02:02;8.80;99.90
22623;DHT22;11478;51.094;7.030;2024-03-23T11:04:39;8.90;99.90
22623;DHT22;11478;51.094;7.030;2024-03-23T11:07:37;8.90;99.90
22623;DHT22;11478;51.094;7.030;2024-03-23T11:10:30;8.80;99.90
22623;DHT22;11478;51.094;7.030;2024-03-23T11:13:26;8.60;99.90
22623;DHT22;11478;51.094;7.030;2024-03-23T11:16:16;8.40;99.90
22623;DHT22;11478;51.094;7.030;2024-03-23T11:22:11;7.80;99.90
22623;DHT22;11478;51.094;7.030;2024-03-23T11:24:40;7.60;99.90
22623;DHT22;11478;51.094;7.030;2024-03-23T11:27:17;7.40;99.90
22623;DHT22;11478;51.094;7.030;2024-03-23T11:30:11;7.20;99.90
22623;DHT22;11478;51.094;7.030;2024-03-23T11:32:38;7.10;99.90
22623;DHT22;11478;51.094;7.030;2024-03-23T11:35:10;7.00;99.90
22623;DHT22;11478;51.094;7.030;2024-03-23T11:37:39;6.90;99.90
22623;DHT22;11478;51.094;7.030;2024-03-23T11:40:25;6.80;99.90
22623;DHT22;11478;51.094;7.030;2024-03-23T11:43:03;6.80;99.90
22623;DHT22;11478;51.094;7.030;2024-03-23T11:45:47;7.20;99.90
22623;DHT22;11478;51.094;7.030;2024-03-23T11:48:24;8.20;99.90
22623;DHT22;11478;51.094;7.030;2024-03-23T11:51:02;9.40;99.90
22623;DHT22;11478;51.094;7.030;2024-03-23T11:53:30;10.70;99.90
22623;DHT22;11478;51.094;7.030;2024-03-23T11:55:58;11.70;99.90
22623;DHT22;11478;51.094;7.030;2024-03-23T11:58:30;12.30;99.90
22623;DHT22;11478;51.094;7.030;2024-03-23T12:00:59;12.50;99.90
22623;DHT22;11478;51.094;7.030;2024-03-23T12:03:26;12.50;99.90
22623;DHT22;11478;51.094;7.030;2024-03-23T12:06:02;12.70;99.90
22623;DHT22;11478;51.094;7.030;2024-03-23T12:08:35;12.80;99.90
22623;DHT22;11478;51.094;7.030;2024-03-23T12:11:16;12.80;99.90
22623;DHT22;11478;51.094;7.030;2024-03-23T12:14:00;12.60;99.90
22623;DHT22;11478;51.094;7.030;2024-03-23T12:16:29;13.00;99.90
22623;DHT22;11478;51.094;7.030;2024-03-23T12:19:12;13.40;99.90
22623;DHT22;11478;51.094;7.030;2024-03-23T12:21:41;13.20;99.90
22623;DHT22;11478;51.094;7.030;2024-03-23T12:24:07;12.70;99.90
22623;DHT22;11478;51.094;7.030;2024-03-23T12:26:36;11.60;99.90
22623;DHT22;11478;51.094;7.030;2024-03-23T12:29:29;10.30;99.90
22623;DHT22;11478;51.094;7.030;2024-03-23T12:32:01;9.90;99.90
22623;DHT22;11478;51.094;7.030;2024-03-23T12:34:28;9.90;99.90
22623;DHT22;11478;51.094;7.030;2024-03-23T12:37:04;10.10;99.90
22623;DHT22;11478;51.094;7.030;2024-03-23T12:39:40;10.10;99.90
22623;DHT22;11478;51.094;7.030;2024-03-23T12:42:13;9.70;99.90
22623;DHT22;11478;51.094;7.030;2024-03-23T12:44:42;9.40;99.90
22623;DHT22;11478;51.094;7.030;2024-03-23T12:47:10;9.10;99.90
22623;DHT22;11478;51.094;7.030;2024-03-23T12:49:39;8.50;99.90
22623;DHT22;11478;51.094;7.030;2024-03-23T12:52:08;8.00;99.90
22623;DHT22;11478;51.094;7.030;2024-03-23T12:54:33;7.60;99.90
22623;DHT22;11478;51.094;7.030;2024-03-23T12:57:06;7.20;99.90
22623;DHT22;11478;51.094;7.030;2024-03-23T12:59:32;6.80;99.90
22623;DHT22;11478;51.094;7.030;2024-03-23T13:02:06;6.60;99.90
22623;DHT22;11478;51.094;7.030;2024-03-23T13:04:42;6.60;99.90
22623;DHT22;11478;51.094;7.030;2024-03-23T13:07:10;6.60;99.90
22623;DHT22;11478;51.094;7.030;2024-03-23T13:09:59;6.80;99.90
22623;DHT22;11478;51.094;7.030;2024-03-23T13:12:31;7.30;99.90
22623;DHT22;11478;51.094;7.030;2024-03-23T13:15:02;8.20;99.90
22623;DHT22;11478;51.094;7.030;2024-03-23T13:17:31;9.30;99.90
22623;DHT22;11478;51.094;7.030;2024-03-23T13:20:00;10.20;99.90
22623;DHT22;11478;51.094;7.030;2024-03-23T13:22:28;10.90;99.90
22623;DHT22;11478;51.094;7.030;2024-03-23T13:25:10;11.40;99.90
22623;DHT22;11478;51.094;7.030;2024-03-23T13:27:45;11.90;99.90
22623;DHT22;11478;51.094;7.030;2024-03-23T13:30:31;12.30;99.90
22623;DHT22;11478;51.094;7.030;2024-03-23T13:33:07;12.80;99.90
22623;DHT22;11478;51.094;7.030;2024-03-23T13:35:35;13.10;99.90
22623;DHT22;11478;51.094;7.030;2024-03-23T13:38:04;12.70;99.90
22623;DHT22;11478;51.094;7.030;2024-03-23T13:40:32;12.30;99.90
22623;DHT22;11478;51.094;7.030;2024-03-23T13:43:01;12.00;99.90
22623;DHT22;11478;51.094;7.030;2024-03-23T13:45:30;11.80;99.90
22623;DHT22;11478;51.094;7.030;2024-03-23T13:48:01;11.50;99.90
22623;DHT22;11478;51.094;7.030;2024-03-23T13:50:29;11.20;99.90
22623;DHT22;11478;51.094;7.030;2024-03-23T13:52:58;10.90;99.90
22623;DHT22;11478;51.094;7.030;2024-03-23T13:55:46;10.90;99.90
22623;DHT22;11478;51.094;7.030;2024-03-23T13:58:14;10.80;99.90
22623;DHT22;11478;51.094;7.030;2024-03-23T14:00:42;10.70;99.90
22623;DHT22;11478;51.094;7.030;2024-03-23T14:03:09;10.70;99.90
22623;DHT22;11478;51.094;7.030;2024-03-23T14:05:40;10.70;99.90
22623;DHT22;11478;51.094;7.030;2024-03-23T14:08:14;10.50;99.90
22623;DHT22;11478;51.094;7.030;2024-03-23T14:10:49;10.20;99.90
22623;DHT22;11478;51.094;7.030;2024-03-23T14:13:32;10.00;99.90
22623;DHT22;11478;51.094;7.030;2024-03-23T14:16:04;9.70;99.90
22623;DHT22;11478;51.094;7.030;2024-03-23T14:18:32;9.50;99.90
22623;DHT22;11478;51.094;7.030;2024-03-23T14:21:01;9.50;99.90
22623;DHT22;11478;51.094;7.030;2024-03-23T14:23:30;9.60;99.90
22623;DHT22;11478;51.094;7.030;2024-03-23T14:26:03;9.80;99.90
22623;DHT22;11478;51.094;7.030;2024-03-23T14:28:32;10.00;99.90
22623;DHT22;11478;51.094;7.030;2024-03-23T14:31:04;10.20;99.90
22623;DHT22;11478;51.094;7.030;2024-03-23T14:33:39;10.40;99.90
22623;DHT22;11478;51.094;7.030;2024-03-23T14:36:14;10.20;99.90
22623;DHT22;11478;51.094;7.030;2024-03-23T14:38:53;9.90;99.90
22623;DHT22;11478;51.094;7.030;2024-03-23T14:41:19;9.70;99.90
22623;DHT22;11478;51.094;7.030;2024-03-23T14:43:44;9.40;99.90
22623;DHT22;11478;51.094;7.030;2024-03-23T14:46:15;9.30;99.90
22623;DHT22;11478;51.094;7.030;2024-03-23T14:48:43;9.20;99.90
22623;DHT22;11478;51.094;7.030;2024-03-23T14:51:15;8.90;99.90
22623;DHT22;11478;51.094;7.030;2024-03-23T14:53:45;8.80;99.90
22623;DHT22;11478;51.094;7.030;2024-03-23T14:56:19;8.60;99.90
22623;DHT22;11478;51.094;7.030;2024-03-23T14:58:52;8.40;99.90
22623;DHT22;11478;51.094;7.030;2024-03-23T15:01:48;8.30;99.90
22623;DHT22;11478;51.094;7.030;2024-03-23T15:04:16;8.20;99.90
22623;DHT22;11478;51.094;7.030;2024-03-23T15:06:42;8.10;99.90
22623;DHT22;11478;51.094;7.030;2024-03-23T15:09:14;8.10;99.90
22623;DHT22;11478;51.094;7.030;2024-03-23T15:11:44;8.10;99.90
22623;DHT22;11478;51.094;7.030;2024-03-23T15:14:15;8.00;99.90
22623;DHT22;11478;51.094;7.030;2024-03-23T15:16:45;7.90;99.90
22623;DHT22;11478;51.094;7.030;2024-03-23T15:19:47;7.70;99.90
22623;DHT22;11478;51.094;7.030;2024-03-23T15:22:15;7.70;99.90
22623;DHT22;11478;51.094;7.030;2024-03-23T15:24:52;7.60;99.90
22623;DHT22;11478;51.094;7.030;2024-03-23T15:27:18;7.60;99.90
22623;DHT22;11478;51.094;7.030;2024-03-23T15:29:46;7.80;99.90
22623;DHT22;11478;51.094;7.030;2024-03-23T15:32:12;8.10;99.90
22623;DHT22;11478;51.094;7.030;2024-03-23T15:34:40;8.30;99.90
22623;DHT22;11478;51.094;7.030;2024-03-23T15:37:08;8.50;99.90
22623;DHT22;11478;51.094;7.030;2024-03-23T15:39:42;8.60;99.90
22623;DHT22;11478;51.094;7.030;2024-03-23T15:42:08;8.90;99.90
22623;DHT22;11478;51.094;7.030;2024-03-23T15:44:50;9.40;99.90
22623;DHT22;11478;51.094;7.030;2024-03-23T15:47:16;9.70;99.90
22623;DHT22;11478;51.094;7.030;2024-03-23T15:49:47;10.20;99.90
22623;DHT22;11478;51.094;7.030;2024-03-23T15:52:14;10.50;99.90
22623;DHT22;11478;51.094;7.030;2024-03-23T15:54:47;10.80;99.90
22623;DHT22;11478;51.094;7.030;2024-03-23T15:57:13;10.90;99.90
22623;DHT22;11478;51.094;7.030;2024-03-23T15:59:44;11.00;99.90
22623;DHT22;11478;51.094;7.030;2024-03-23T16:02:12;11.00;99.90
22623;DHT22;11478;51.094;7.030;2024-03-23T16:04:42;10.70;99.90
22623;DHT22;11478;51.094;7.030;2024-03-23T16:07:11;10.30;99.90
22623;DHT22;11478;51.094;7.030;2024-03-23T16:09:43;9.80;99.90
22623;DHT22;11478;51.094;7.030;2024-03-23T16:12:09;9.40;99.90
22623;DHT22;11478;51.094;7.030;2024-03-23T16:14:37;9.00;99.90
22623;DHT22;11478;51.094;7.030;2024-03-23T16:17:05;8.70;99.90
22623;DHT22;11478;51.094;7.030;2024-03-23T16:19:43;8.50;99.90
22623;DHT22;11478;51.094;7.030;2024-03-23T16:22:11;8.30;99.90
22623;DHT22;11478;51.094;7.030;2024-03-23T16:24:38;8.20;99.90
22623;DHT22;11478;51.094;7.030;2024-03-23T16:27:07;8.10;99.90
22623;DHT22;11478;51.094;7.030;2024-03-23T16:29:37;8.00;99.90
22623;DHT22;11478;51.094;7.030;2024-03-23T16:32:05;8.00;99.90
22623;DHT22;11478;51.094;7.030;2024-03-23T16:34:40;8.10;99.90
22623;DHT22;11478;51.094;7.030;2024-03-23T16:37:08;8.10;99.90
22623;DHT22;11478;51.094;7.030;2024-03-23T16:39:39;8.20;99.90
22623;DHT22;11478;51.094;7.030;2024-03-23T16:42:05;8.30;99.90
22623;DHT22;11478;51.094;7.030;2024-03-23T16:44:38;8.40;99.90
22623;DHT22;11478;51.094;7.030;2024-03-23T16:47:11;8.60;99.90
22623;DHT22;11478;51.094;7.030;2024-03-23T16:49:48;8.70;99.90
22623;DHT22;11478;51.094;7.030;2024-03-23T16:52:14;8.70;99.90
22623;DHT22;11478;51.094;7.030;2024-03-23T16:54:45;8.60;99.90
22623;DHT22;11478;51.094;7.030;2024-03-23T16:57:10;8.60;99.90
22623;DHT22;11478;51.094;7.030;2024-03-23T16:59:54;8.50;99.90
22623;DHT22;11478;51.094;7.030;2024-03-23T17:02:23;8.50;99.90
22623;DHT22;11478;51.094;7.030;2024-03-23T17:04:49;8.50;99.90
22623;DHT22;11478;51.094;7.030;2024-03-23T17:07:16;8.40;99.90
22623;DHT22;11478;51.094;7.030;2024-03-23T17:09:47;8.30;99.90
22623;DHT22;11478;51.094;7.030;2024-03-23T17:12:15;8.10;99.90
22623;DHT22;11478;51.094;7.030;2024-03-23T17:14:41;8.00;99.90
22623;DHT22;11478;51.094;7.030;2024-03-23T17:17:16;7.80;99.90
22623;DHT22;11478;51.094;7.030;2024-03-23T17:19:42;7.60;99.90
22623;DHT22;11478;51.094;7.030;2024-03-23T17:22:15;7.40;99.90
22623;DHT22;11478;51.094;7.030;2024-03-23T17:24:41;7.30;99.90
22623;DHT22;11478;51.094;7.030;2024-03-23T17:27:10;7.10;99.90
22623;DHT22;11478;51.094;7.030;2024-03-23T17:29:39;6.90;99.90
22623;DHT22;11478;51.094;7.030;2024-03-23T17:32:18;6.80;99.90
22623;DHT22;11478;51.094;7.030;2024-03-23T17:34:48;6.60;99.90
22623;DHT22;11478;51.094;7.030;2024-03-23T17:37:22;6.50;99.90
22623;DHT22;11478;51.094;7.030;2024-03-23T17:39:52;6.40;99.90
22623;DHT22;11478;51.094;7.030;2024-03-23T17:42:18;6.30;99.90